sensor_id;sensor_type;location;lat;lon;timestamp;P1;durP1;ratioP1;P2;durP2;ratioP2
51467;SDS011;37545;45.302;-122.946;2023-04-15T00:00:48;1.27;;;1.08;;
51467;SDS011;37545;45.302;-122.946;2023-04-15T00:03:17;4.82;;;1.38;;
51467;SDS011;37545;45.302;-122.946;2023-04-15T00:05:46;5.10;;;1.60;;
51467;SDS011;37545;45.302;-122.946;2023-04-15T00:08:14;1.85;;;1.10;;
51467;SDS011;37545;45.302;-122.946;2023-04-15T00:10:44;2.95;;;1.50;;
51467;SDS011;37545;45.302;-122.946;2023-04-15T00:13:14;2.03;;;1.40;;
51467;SDS011;37545;45.302;-122.946;2023-04-15T00:15:43;2.92;;;1.33;;
51467;SDS011;37545;45.302;-122.946;2023-04-15T00:18:11;3.45;;;1.17;;
51467;SDS011;37545;45.302;-122.946;2023-04-15T00:20:40;2.50;;;1.48;;
51467;SDS011;37545;45.302;-122.946;2023-04-15T00:23:09;2.05;;;1.40;;
51467;SDS011;37545;45.302;-122.946;2023-04-15T00:25:37;2.80;;;1.50;;
51467;SDS011;37545;45.302;-122.946;2023-04-15T00:28:06;1.90;;;1.10;;
51467;SDS011;37545;45.302;-122.946;2023-04-15T00:30:37;1.48;;;1.15;;
51467;SDS011;37545;45.302;-122.946;2023-04-15T00:33:07;2.05;;;1.20;;
51467;SDS011;37545;45.302;-122.946;2023-04-15T00:35:36;1.83;;;1.20;;
51467;SDS011;37545;45.302;-122.946;2023-04-15T00:38:05;3.67;;;1.60;;
51467;SDS011;37545;45.302;-122.946;2023-04-15T00:40:34;3.10;;;1.30;;
51467;SDS011;37545;45.302;-122.946;2023-04-15T00:43:03;2.42;;;1.33;;
51467;SDS011;37545;45.302;-122.946;2023-04-15T00:45:31;2.30;;;1.20;;
51467;SDS011;37545;45.302;-122.946;2023-04-15T00:48:02;2.63;;;0.93;;
51467;SDS011;37545;45.302;-122.946;2023-04-15T00:50:32;3.07;;;1.30;;
51467;SDS011;37545;45.302;-122.946;2023-04-15T00:53:00;2.38;;;1.23;;
51467;SDS011;37545;45.302;-122.946;2023-04-15T00:55:29;1.35;;;0.65;;
51467;SDS011;37545;45.302;-122.946;2023-04-15T00:57:58;2.75;;;1.10;;
51467;SDS011;37545;45.302;-122.946;2023-04-15T01:00:27;1.25;;;0.80;;
51467;SDS011;37545;45.302;-122.946;2023-04-15T01:02:56;1.42;;;1.10;;
51467;SDS011;37545;45.302;-122.946;2023-04-15T01:05:27;1.35;;;0.70;;
51467;SDS011;37545;45.302;-122.946;2023-04-15T01:07:56;1.38;;;0.88;;
51467;SDS011;37545;45.302;-122.946;2023-04-15T01:10:25;1.65;;;0.65;;
51467;SDS011;37545;45.302;-122.946;2023-04-15T01:12:54;1.77;;;0.80;;
51467;SDS011;37545;45.302;-122.946;2023-04-15T01:15:24;1.38;;;0.70;;
51467;SDS011;37545;45.302;-122.946;2023-04-15T01:17:53;1.65;;;1.00;;
51467;SDS011;37545;45.302;-122.946;2023-04-15T01:20:24;3.63;;;0.93;;
51467;SDS011;37545;45.302;-122.946;2023-04-15T01:22:55;1.80;;;0.87;;
51467;SDS011;37545;45.302;-122.946;2023-04-15T01:25:28;1.30;;;0.70;;
51467;SDS011;37545;45.302;-122.946;2023-04-15T01:28:00;2.78;;;1.02;;
51467;SDS011;37545;45.302;-122.946;2023-04-15T01:30:47;2.05;;;1.05;;
51467;SDS011;37545;45.302;-122.946;2023-04-15T01:33:15;2.00;;;0.80;;
51467;SDS011;37545;45.302;-122.946;2023-04-15T01:35:44;1.55;;;1.08;;
51467;SDS011;37545;45.302;-122.946;2023-04-15T01:38:13;2.03;;;0.80;;
51467;SDS011;37545;45.302;-122.946;2023-04-15T01:40:43;1.00;;;0.60;;
51467;SDS011;37545;45.302;-122.946;2023-04-15T01:43:12;1.65;;;0.60;;
51467;SDS011;37545;45.302;-122.946;2023-04-15T01:45:41;1.08;;;0.70;;
51467;SDS011;37545;45.302;-122.946;2023-04-15T01:48:10;1.20;;;0.65;;
51467;SDS011;37545;45.302;-122.946;2023-04-15T01:50:39;1.20;;;0.60;;
51467;SDS011;37545;45.302;-122.946;2023-04-15T01:53:07;1.77;;;1.00;;
51467;SDS011;37545;45.302;-122.946;2023-04-15T01:55:36;0.88;;;0.43;;
51467;SDS011;37545;45.302;-122.946;2023-04-15T01:58:07;0.90;;;0.75;;
51467;SDS011;37545;45.302;-122.946;2023-04-15T02:00:35;1.25;;;0.60;;
51467;SDS011;37545;45.302;-122.946;2023-04-15T02:03:04;3.92;;;0.65;;
51467;SDS011;37545;45.302;-122.946;2023-04-15T02:05:33;1.13;;;0.70;;
51467;SDS011;37545;45.302;-122.946;2023-04-15T02:08:01;0.95;;;0.50;;
51467;SDS011;37545;45.302;-122.946;2023-04-15T02:10:30;2.35;;;0.50;;
51467;SDS011;37545;45.302;-122.946;2023-04-15T02:12:59;1.55;;;0.77;;
51467;SDS011;37545;45.302;-122.946;2023-04-15T02:15:29;1.17;;;0.70;;
51467;SDS011;37545;45.302;-122.946;2023-04-15T02:17:58;2.78;;;0.50;;
51467;SDS011;37545;45.302;-122.946;2023-04-15T02:20:27;3.00;;;1.15;;
51467;SDS011;37545;45.302;-122.946;2023-04-15T02:22:56;1.15;;;0.80;;
51467;SDS011;37545;45.302;-122.946;2023-04-15T02:25:25;1.00;;;0.52;;
51467;SDS011;37545;45.302;-122.946;2023-04-15T02:27:56;0.73;;;0.52;;
51467;SDS011;37545;45.302;-122.946;2023-04-15T02:30:25;3.88;;;0.82;;
51467;SDS011;37545;45.302;-122.946;2023-04-15T02:32:55;0.70;;;0.43;;
51467;SDS011;37545;45.302;-122.946;2023-04-15T02:35:24;0.52;;;0.47;;
51467;SDS011;37545;45.302;-122.946;2023-04-15T02:37:53;1.73;;;0.40;;
51467;SDS011;37545;45.302;-122.946;2023-04-15T02:40:21;6.47;;;0.73;;
51467;SDS011;37545;45.302;-122.946;2023-04-15T02:42:50;0.90;;;0.57;;
51467;SDS011;37545;45.302;-122.946;2023-04-15T02:45:19;2.05;;;0.82;;
51467;SDS011;37545;45.302;-122.946;2023-04-15T02:47:50;3.28;;;0.70;;
51467;SDS011;37545;45.302;-122.946;2023-04-15T02:50:21;0.45;;;0.35;;
51467;SDS011;37545;45.302;-122.946;2023-04-15T02:52:50;3.90;;;0.52;;
51467;SDS011;37545;45.302;-122.946;2023-04-15T02:55:19;1.02;;;0.50;;
51467;SDS011;37545;45.302;-122.946;2023-04-15T02:57:48;0.73;;;0.40;;
51467;SDS011;37545;45.302;-122.946;2023-04-15T03:00:16;1.50;;;0.82;;
51467;SDS011;37545;45.302;-122.946;2023-04-15T03:02:45;3.75;;;0.60;;
51467;SDS011;37545;45.302;-122.946;2023-04-15T03:05:16;1.27;;;0.55;;
51467;SDS011;37545;45.302;-122.946;2023-04-15T03:07:47;1.15;;;0.60;;
51467;SDS011;37545;45.302;-122.946;2023-04-15T03:10:15;2.97;;;0.70;;
51467;SDS011;37545;45.302;-122.946;2023-04-15T03:12:44;3.05;;;1.83;;
51467;SDS011;37545;45.302;-122.946;2023-04-15T03:15:13;6.85;;;1.33;;
51467;SDS011;37545;45.302;-122.946;2023-04-15T03:17:42;1.17;;;0.90;;
51467;SDS011;37545;45.302;-122.946;2023-04-15T03:20:10;2.92;;;0.90;;
51467;SDS011;37545;45.302;-122.946;2023-04-15T03:22:48;1.88;;;0.95;;
51467;SDS011;37545;45.302;-122.946;2023-04-15T03:25:17;1.88;;;1.00;;
51467;SDS011;37545;45.302;-122.946;2023-04-15T03:27:46;4.57;;;1.45;;
51467;SDS011;37545;45.302;-122.946;2023-04-15T03:30:15;0.95;;;0.93;;
51467;SDS011;37545;45.302;-122.946;2023-04-15T03:32:44;3.28;;;0.75;;
51467;SDS011;37545;45.302;-122.946;2023-04-15T03:35:12;1.58;;;0.85;;
51467;SDS011;37545;45.302;-122.946;2023-04-15T03:37:41;4.80;;;0.80;;
51467;SDS011;37545;45.302;-122.946;2023-04-15T03:40:12;1.15;;;0.90;;
51467;SDS011;37545;45.302;-122.946;2023-04-15T03:42:41;3.60;;;1.10;;
51467;SDS011;37545;45.302;-122.946;2023-04-15T03:45:10;3.20;;;0.93;;
51467;SDS011;37545;45.302;-122.946;2023-04-15T03:47:39;2.70;;;0.80;;
51467;SDS011;37545;45.302;-122.946;2023-04-15T03:50:07;1.40;;;0.73;;
51467;SDS011;37545;45.302;-122.946;2023-04-15T03:52:37;1.55;;;0.90;;
51467;SDS011;37545;45.302;-122.946;2023-04-15T03:55:06;5.10;;;0.55;;
51467;SDS011;37545;45.302;-122.946;2023-04-15T03:57:37;5.05;;;0.85;;
51467;SDS011;37545;45.302;-122.946;2023-04-15T04:00:06;3.13;;;0.80;;
51467;SDS011;37545;45.302;-122.946;2023-04-15T04:02:36;1.60;;;0.75;;
51467;SDS011;37545;45.302;-122.946;2023-04-15T04:05:05;0.93;;;0.70;;
51467;SDS011;37545;45.302;-122.946;2023-04-15T04:07:34;2.00;;;0.93;;
51467;SDS011;37545;45.302;-122.946;2023-04-15T04:10:03;2.97;;;0.80;;
51467;SDS011;37545;45.302;-122.946;2023-04-15T04:12:33;1.35;;;0.70;;
51467;SDS011;37545;45.302;-122.946;2023-04-15T04:15:03;2.13;;;1.02;;
51467;SDS011;37545;45.302;-122.946;2023-04-15T04:17:33;3.90;;;0.98;;
51467;SDS011;37545;45.302;-122.946;2023-04-15T04:20:02;1.42;;;0.88;;
51467;SDS011;37545;45.302;-122.946;2023-04-15T04:22:31;2.80;;;1.00;;
51467;SDS011;37545;45.302;-122.946;2023-04-15T04:25:05;2.53;;;0.95;;
51467;SDS011;37545;45.302;-122.946;2023-04-15T04:27:35;2.55;;;0.90;;
51467;SDS011;37545;45.302;-122.946;2023-04-15T04:30:06;6.22;;;1.10;;
51467;SDS011;37545;45.302;-122.946;2023-04-15T04:32:35;3.40;;;0.70;;
51467;SDS011;37545;45.302;-122.946;2023-04-15T04:35:04;0.90;;;0.73;;
51467;SDS011;37545;45.302;-122.946;2023-04-15T04:37:33;1.70;;;0.93;;
51467;SDS011;37545;45.302;-122.946;2023-04-15T04:40:02;2.47;;;1.33;;
51467;SDS011;37545;45.302;-122.946;2023-04-15T04:42:31;2.03;;;0.77;;
51467;SDS011;37545;45.302;-122.946;2023-04-15T04:45:00;3.55;;;0.88;;
51467;SDS011;37545;45.302;-122.946;2023-04-15T04:47:31;1.42;;;0.90;;
51467;SDS011;37545;45.302;-122.946;2023-04-15T04:49:59;4.72;;;1.17;;
51467;SDS011;37545;45.302;-122.946;2023-04-15T04:52:35;2.45;;;1.27;;
51467;SDS011;37545;45.302;-122.946;2023-04-15T04:55:04;3.75;;;1.50;;
51467;SDS011;37545;45.302;-122.946;2023-04-15T04:57:33;3.63;;;1.55;;
51467;SDS011;37545;45.302;-122.946;2023-04-15T05:00:02;6.18;;;1.30;;
51467;SDS011;37545;45.302;-122.946;2023-04-15T05:02:34;3.90;;;1.63;;
51467;SDS011;37545;45.302;-122.946;2023-04-15T05:05:03;3.10;;;0.90;;
51467;SDS011;37545;45.302;-122.946;2023-04-15T05:07:33;2.40;;;1.30;;
51467;SDS011;37545;45.302;-122.946;2023-04-15T05:10:01;2.47;;;1.50;;
51467;SDS011;37545;45.302;-122.946;2023-04-15T05:12:30;3.70;;;1.20;;
51467;SDS011;37545;45.302;-122.946;2023-04-15T05:14:59;3.05;;;1.60;;
51467;SDS011;37545;45.302;-122.946;2023-04-15T05:17:28;6.32;;;2.05;;
51467;SDS011;37545;45.302;-122.946;2023-04-15T05:20:01;5.97;;;1.90;;
51467;SDS011;37545;45.302;-122.946;2023-04-15T05:22:30;3.83;;;2.20;;
51467;SDS011;37545;45.302;-122.946;2023-04-15T05:24:59;4.55;;;1.90;;
51467;SDS011;37545;45.302;-122.946;2023-04-15T05:27:27;8.18;;;2.22;;
51467;SDS011;37545;45.302;-122.946;2023-04-15T05:29:56;5.13;;;1.85;;
51467;SDS011;37545;45.302;-122.946;2023-04-15T05:32:25;3.08;;;1.85;;
51467;SDS011;37545;45.302;-122.946;2023-04-15T05:34:53;5.47;;;2.92;;
51467;SDS011;37545;45.302;-122.946;2023-04-15T05:37:24;5.78;;;2.60;;
51467;SDS011;37545;45.302;-122.946;2023-04-15T05:39:52;5.47;;;2.53;;
51467;SDS011;37545;45.302;-122.946;2023-04-15T05:42:21;4.75;;;2.40;;
51467;SDS011;37545;45.302;-122.946;2023-04-15T05:44:50;7.35;;;2.95;;
51467;SDS011;37545;45.302;-122.946;2023-04-15T05:47:18;6.65;;;2.63;;
51467;SDS011;37545;45.302;-122.946;2023-04-15T05:49:47;6.80;;;2.72;;
51467;SDS011;37545;45.302;-122.946;2023-04-15T05:52:16;6.28;;;2.55;;
51467;SDS011;37545;45.302;-122.946;2023-04-15T05:54:46;7.45;;;2.47;;
51467;SDS011;37545;45.302;-122.946;2023-04-15T05:57:15;5.57;;;2.40;;
51467;SDS011;37545;45.302;-122.946;2023-04-15T05:59:43;6.18;;;2.10;;
51467;SDS011;37545;45.302;-122.946;2023-04-15T06:02:12;6.40;;;2.13;;
51467;SDS011;37545;45.302;-122.946;2023-04-15T06:04:40;4.57;;;2.35;;
51467;SDS011;37545;45.302;-122.946;2023-04-15T06:07:09;3.05;;;2.33;;
51467;SDS011;37545;45.302;-122.946;2023-04-15T06:09:38;7.80;;;2.50;;
51467;SDS011;37545;45.302;-122.946;2023-04-15T06:12:08;5.30;;;2.28;;
51467;SDS011;37545;45.302;-122.946;2023-04-15T06:14:37;7.70;;;2.80;;
51467;SDS011;37545;45.302;-122.946;2023-04-15T06:17:06;5.88;;;2.60;;
51467;SDS011;37545;45.302;-122.946;2023-04-15T06:19:35;3.80;;;1.90;;
51467;SDS011;37545;45.302;-122.946;2023-04-15T06:22:04;6.95;;;2.15;;
51467;SDS011;37545;45.302;-122.946;2023-04-15T06:24:33;3.00;;;1.50;;
51467;SDS011;37545;45.302;-122.946;2023-04-15T06:27:02;3.75;;;2.17;;
51467;SDS011;37545;45.302;-122.946;2023-04-15T06:29:33;5.07;;;2.67;;
51467;SDS011;37545;45.302;-122.946;2023-04-15T06:32:02;5.55;;;2.55;;
51467;SDS011;37545;45.302;-122.946;2023-04-15T06:34:31;7.25;;;2.78;;
51467;SDS011;37545;45.302;-122.946;2023-04-15T06:36:59;7.53;;;2.58;;
51467;SDS011;37545;45.302;-122.946;2023-04-15T06:39:28;6.15;;;2.30;;
51467;SDS011;37545;45.302;-122.946;2023-04-15T06:41:57;3.72;;;1.80;;
51467;SDS011;37545;45.302;-122.946;2023-04-15T06:44:26;6.88;;;2.53;;
51467;SDS011;37545;45.302;-122.946;2023-04-15T06:46:56;4.97;;;2.42;;
51467;SDS011;37545;45.302;-122.946;2023-04-15T06:49:25;5.32;;;2.42;;
51467;SDS011;37545;45.302;-122.946;2023-04-15T06:51:53;4.80;;;2.40;;
51467;SDS011;37545;45.302;-122.946;2023-04-15T06:54:22;8.10;;;2.30;;
51467;SDS011;37545;45.302;-122.946;2023-04-15T06:56:51;5.78;;;2.90;;
51467;SDS011;37545;45.302;-122.946;2023-04-15T06:59:19;4.45;;;2.05;;
51467;SDS011;37545;45.302;-122.946;2023-04-15T07:01:48;9.00;;;2.05;;
51467;SDS011;37545;45.302;-122.946;2023-04-15T07:04:18;3.67;;;2.40;;
51467;SDS011;37545;45.302;-122.946;2023-04-15T07:06:47;6.25;;;2.85;;
51467;SDS011;37545;45.302;-122.946;2023-04-15T07:09:16;4.47;;;2.35;;
51467;SDS011;37545;45.302;-122.946;2023-04-15T07:11:44;4.63;;;1.90;;
51467;SDS011;37545;45.302;-122.946;2023-04-15T07:14:13;5.18;;;2.40;;
51467;SDS011;37545;45.302;-122.946;2023-04-15T07:16:42;5.53;;;2.10;;
51467;SDS011;37545;45.302;-122.946;2023-04-15T07:19:10;8.88;;;2.60;;
51467;SDS011;37545;45.302;-122.946;2023-04-15T07:21:40;7.57;;;2.67;;
51467;SDS011;37545;45.302;-122.946;2023-04-15T07:24:09;3.40;;;2.30;;
51467;SDS011;37545;45.302;-122.946;2023-04-15T07:26:41;6.70;;;2.72;;
51467;SDS011;37545;45.302;-122.946;2023-04-15T07:29:10;3.30;;;1.75;;
51467;SDS011;37545;45.302;-122.946;2023-04-15T07:31:38;3.17;;;2.10;;
51467;SDS011;37545;45.302;-122.946;2023-04-15T07:34:08;2.90;;;2.00;;
51467;SDS011;37545;45.302;-122.946;2023-04-15T07:36:36;5.97;;;1.80;;
51467;SDS011;37545;45.302;-122.946;2023-04-15T07:39:07;8.35;;;2.30;;
51467;SDS011;37545;45.302;-122.946;2023-04-15T07:41:35;6.50;;;2.17;;
51467;SDS011;37545;45.302;-122.946;2023-04-15T07:44:04;3.45;;;1.90;;
51467;SDS011;37545;45.302;-122.946;2023-04-15T07:46:33;4.72;;;1.85;;
51467;SDS011;37545;45.302;-122.946;2023-04-15T07:49:01;4.30;;;2.17;;
51467;SDS011;37545;45.302;-122.946;2023-04-15T07:51:30;3.13;;;1.58;;
51467;SDS011;37545;45.302;-122.946;2023-04-15T07:53:59;5.13;;;1.75;;
51467;SDS011;37545;45.302;-122.946;2023-04-15T07:56:30;4.80;;;1.88;;
51467;SDS011;37545;45.302;-122.946;2023-04-15T07:58:59;6.82;;;1.80;;
51467;SDS011;37545;45.302;-122.946;2023-04-15T08:01:29;6.68;;;2.03;;
51467;SDS011;37545;45.302;-122.946;2023-04-15T08:03:59;2.92;;;1.83;;
51467;SDS011;37545;45.302;-122.946;2023-04-15T08:06:27;2.38;;;1.00;;
51467;SDS011;37545;45.302;-122.946;2023-04-15T08:08:56;4.82;;;1.85;;
51467;SDS011;37545;45.302;-122.946;2023-04-15T08:11:25;2.95;;;1.40;;
51467;SDS011;37545;45.302;-122.946;2023-04-15T08:13:56;4.63;;;2.00;;
51467;SDS011;37545;45.302;-122.946;2023-04-15T08:16:25;3.20;;;2.08;;
51467;SDS011;37545;45.302;-122.946;2023-04-15T08:18:54;4.20;;;1.92;;
51467;SDS011;37545;45.302;-122.946;2023-04-15T08:21:23;3.63;;;1.65;;
51467;SDS011;37545;45.302;-122.946;2023-04-15T08:23:52;1.98;;;1.27;;
51467;SDS011;37545;45.302;-122.946;2023-04-15T08:26:21;3.60;;;1.80;;
51467;SDS011;37545;45.302;-122.946;2023-04-15T08:28:49;2.75;;;1.42;;
51467;SDS011;37545;45.302;-122.946;2023-04-15T08:31:20;8.20;;;1.80;;
51467;SDS011;37545;45.302;-122.946;2023-04-15T08:33:48;2.55;;;1.60;;
51467;SDS011;37545;45.302;-122.946;2023-04-15T08:36:19;4.28;;;1.95;;
51467;SDS011;37545;45.302;-122.946;2023-04-15T08:38:48;3.88;;;1.60;;
51467;SDS011;37545;45.302;-122.946;2023-04-15T08:41:19;2.38;;;1.52;;
51467;SDS011;37545;45.302;-122.946;2023-04-15T08:43:52;3.35;;;1.50;;
51467;SDS011;37545;45.302;-122.946;2023-04-15T08:46:25;3.40;;;1.35;;
51467;SDS011;37545;45.302;-122.946;2023-04-15T08:48:55;5.38;;;1.63;;
51467;SDS011;37545;45.302;-122.946;2023-04-15T08:51:25;4.70;;;1.40;;
51467;SDS011;37545;45.302;-122.946;2023-04-15T08:53:56;3.17;;;1.77;;
51467;SDS011;37545;45.302;-122.946;2023-04-15T08:56:25;2.03;;;1.05;;
51467;SDS011;37545;45.302;-122.946;2023-04-15T08:58:54;4.47;;;1.50;;
51467;SDS011;37545;45.302;-122.946;2023-04-15T09:01:25;4.00;;;1.13;;
51467;SDS011;37545;45.302;-122.946;2023-04-15T09:03:55;2.25;;;1.30;;
51467;SDS011;37545;45.302;-122.946;2023-04-15T09:06:24;2.22;;;1.02;;
51467;SDS011;37545;45.302;-122.946;2023-04-15T09:08:53;5.10;;;1.73;;
51467;SDS011;37545;45.302;-122.946;2023-04-15T09:11:22;2.15;;;1.20;;
51467;SDS011;37545;45.302;-122.946;2023-04-15T09:13:51;3.65;;;1.20;;
51467;SDS011;37545;45.302;-122.946;2023-04-15T09:16:20;2.75;;;1.20;;
51467;SDS011;37545;45.302;-122.946;2023-04-15T09:18:50;4.60;;;1.92;;
51467;SDS011;37545;45.302;-122.946;2023-04-15T09:21:19;2.67;;;1.52;;
51467;SDS011;37545;45.302;-122.946;2023-04-15T09:23:55;2.72;;;1.13;;
51467;SDS011;37545;45.302;-122.946;2023-04-15T09:26:31;2.50;;;1.23;;
51467;SDS011;37545;45.302;-122.946;2023-04-15T09:29:04;2.83;;;1.05;;
51467;SDS011;37545;45.302;-122.946;2023-04-15T09:31:33;2.60;;;1.15;;
51467;SDS011;37545;45.302;-122.946;2023-04-15T09:34:04;1.95;;;0.95;;
51467;SDS011;37545;45.302;-122.946;2023-04-15T09:36:50;2.78;;;1.38;;
51467;SDS011;37545;45.302;-122.946;2023-04-15T09:39:20;2.75;;;1.42;;
51467;SDS011;37545;45.302;-122.946;2023-04-15T09:44:36;2.97;;;1.40;;
51467;SDS011;37545;45.302;-122.946;2023-04-15T09:47:04;3.03;;;1.02;;
51467;SDS011;37545;45.302;-122.946;2023-04-15T09:49:35;2.03;;;1.23;;
51467;SDS011;37545;45.302;-122.946;2023-04-15T09:52:03;2.90;;;1.10;;
51467;SDS011;37545;45.302;-122.946;2023-04-15T09:54:43;1.67;;;0.90;;
51467;SDS011;37545;45.302;-122.946;2023-04-15T09:57:12;2.15;;;1.10;;
51467;SDS011;37545;45.302;-122.946;2023-04-15T09:59:41;1.13;;;1.02;;
51467;SDS011;37545;45.302;-122.946;2023-04-15T10:02:09;1.77;;;1.00;;
51467;SDS011;37545;45.302;-122.946;2023-04-15T10:04:42;2.20;;;1.40;;
51467;SDS011;37545;45.302;-122.946;2023-04-15T10:07:11;1.40;;;1.30;;
51467;SDS011;37545;45.302;-122.946;2023-04-15T10:09:40;2.30;;;1.23;;
51467;SDS011;37545;45.302;-122.946;2023-04-15T10:12:17;1.58;;;1.10;;
51467;SDS011;37545;45.302;-122.946;2023-04-15T10:14:55;5.15;;;1.08;;
51467;SDS011;37545;45.302;-122.946;2023-04-15T10:17:26;3.67;;;1.23;;
51467;SDS011;37545;45.302;-122.946;2023-04-15T10:20:00;2.60;;;1.20;;
51467;SDS011;37545;45.302;-122.946;2023-04-15T10:22:29;3.67;;;1.25;;
51467;SDS011;37545;45.302;-122.946;2023-04-15T10:24:59;1.55;;;1.02;;
51467;SDS011;37545;45.302;-122.946;2023-04-15T10:27:29;2.92;;;1.10;;
51467;SDS011;37545;45.302;-122.946;2023-04-15T10:29:59;3.38;;;1.27;;
51467;SDS011;37545;45.302;-122.946;2023-04-15T10:32:29;3.55;;;1.17;;
51467;SDS011;37545;45.302;-122.946;2023-04-15T10:35:00;1.45;;;0.90;;
51467;SDS011;37545;45.302;-122.946;2023-04-15T10:37:33;2.28;;;1.10;;
51467;SDS011;37545;45.302;-122.946;2023-04-15T10:42:49;2.00;;;1.20;;
51467;SDS011;37545;45.302;-122.946;2023-04-15T10:45:18;1.60;;;1.00;;
51467;SDS011;37545;45.302;-122.946;2023-04-15T10:47:50;2.08;;;1.00;;
51467;SDS011;37545;45.302;-122.946;2023-04-15T10:50:23;2.38;;;1.23;;
51467;SDS011;37545;45.302;-122.946;2023-04-15T10:52:54;1.50;;;1.02;;
51467;SDS011;37545;45.302;-122.946;2023-04-15T10:55:24;2.97;;;1.40;;
51467;SDS011;37545;45.302;-122.946;2023-04-15T10:57:53;4.30;;;1.48;;
51467;SDS011;37545;45.302;-122.946;2023-04-15T11:00:27;2.50;;;1.10;;
51467;SDS011;37545;45.302;-122.946;2023-04-15T11:02:57;1.53;;;1.00;;
51467;SDS011;37545;45.302;-122.946;2023-04-15T11:11:22;2.25;;;1.20;;
51467;SDS011;37545;45.302;-122.946;2023-04-15T11:13:50;1.67;;;0.85;;
51467;SDS011;37545;45.302;-122.946;2023-04-15T11:16:19;2.33;;;1.30;;
51467;SDS011;37545;45.302;-122.946;2023-04-15T11:18:54;3.00;;;1.17;;
51467;SDS011;37545;45.302;-122.946;2023-04-15T11:21:25;2.03;;;0.80;;
51467;SDS011;37545;45.302;-122.946;2023-04-15T11:23:53;3.30;;;1.08;;
51467;SDS011;37545;45.302;-122.946;2023-04-15T11:26:24;1.27;;;0.77;;
51467;SDS011;37545;45.302;-122.946;2023-04-15T11:28:53;3.55;;;1.10;;
51467;SDS011;37545;45.302;-122.946;2023-04-15T11:31:22;2.22;;;1.48;;
51467;SDS011;37545;45.302;-122.946;2023-04-15T11:33:55;1.23;;;0.70;;
51467;SDS011;37545;45.302;-122.946;2023-04-15T11:36:28;1.98;;;1.23;;
51467;SDS011;37545;45.302;-122.946;2023-04-15T11:38:57;2.03;;;1.15;;
51467;SDS011;37545;45.302;-122.946;2023-04-15T11:41:26;3.83;;;1.25;;
51467;SDS011;37545;45.302;-122.946;2023-04-15T11:43:55;2.30;;;1.50;;
51467;SDS011;37545;45.302;-122.946;2023-04-15T11:46:28;0.77;;;0.52;;
51467;SDS011;37545;45.302;-122.946;2023-04-15T11:48:57;2.42;;;0.57;;
51467;SDS011;37545;45.302;-122.946;2023-04-15T11:51:27;3.90;;;1.05;;
51467;SDS011;37545;45.302;-122.946;2023-04-15T11:54:00;1.92;;;1.00;;
51467;SDS011;37545;45.302;-122.946;2023-04-15T11:56:29;1.30;;;0.98;;
51467;SDS011;37545;45.302;-122.946;2023-04-15T11:58:57;4.90;;;1.52;;
51467;SDS011;37545;45.302;-122.946;2023-04-15T12:01:32;2.78;;;1.10;;
51467;SDS011;37545;45.302;-122.946;2023-04-15T12:04:01;4.50;;;1.10;;
51467;SDS011;37545;45.302;-122.946;2023-04-15T12:06:40;1.45;;;0.93;;
51467;SDS011;37545;45.302;-122.946;2023-04-15T12:09:09;1.60;;;0.98;;
51467;SDS011;37545;45.302;-122.946;2023-04-15T12:11:39;1.48;;;0.93;;
51467;SDS011;37545;45.302;-122.946;2023-04-15T12:14:10;3.20;;;1.25;;
51467;SDS011;37545;45.302;-122.946;2023-04-15T12:16:40;6.60;;;1.00;;
51467;SDS011;37545;45.302;-122.946;2023-04-15T12:19:11;1.33;;;0.90;;
51467;SDS011;37545;45.302;-122.946;2023-04-15T12:21:43;2.25;;;1.20;;
51467;SDS011;37545;45.302;-122.946;2023-04-15T12:24:13;5.30;;;1.13;;
51467;SDS011;37545;45.302;-122.946;2023-04-15T12:29:15;2.53;;;1.40;;
51467;SDS011;37545;45.302;-122.946;2023-04-15T12:31:51;1.73;;;1.35;;
51467;SDS011;37545;45.302;-122.946;2023-04-15T12:34:27;3.55;;;1.60;;
51467;SDS011;37545;45.302;-122.946;2023-04-15T12:36:58;4.10;;;1.67;;
51467;SDS011;37545;45.302;-122.946;2023-04-15T12:39:28;3.47;;;1.58;;
51467;SDS011;37545;45.302;-122.946;2023-04-15T12:41:58;2.45;;;1.58;;
51467;SDS011;37545;45.302;-122.946;2023-04-15T12:44:27;3.38;;;1.52;;
51467;SDS011;37545;45.302;-122.946;2023-04-15T12:46:55;3.88;;;1.10;;
51467;SDS011;37545;45.302;-122.946;2023-04-15T12:49:24;2.72;;;1.35;;
51467;SDS011;37545;45.302;-122.946;2023-04-15T12:51:54;1.40;;;0.85;;
51467;SDS011;37545;45.302;-122.946;2023-04-15T12:54:25;2.78;;;1.20;;
51467;SDS011;37545;45.302;-122.946;2023-04-15T12:56:54;2.08;;;1.17;;
51467;SDS011;37545;45.302;-122.946;2023-04-15T12:59:23;3.45;;;1.33;;
51467;SDS011;37545;45.302;-122.946;2023-04-15T13:01:52;2.42;;;1.17;;
51467;SDS011;37545;45.302;-122.946;2023-04-15T13:04:21;3.97;;;1.10;;
51467;SDS011;37545;45.302;-122.946;2023-04-15T13:06:49;5.15;;;1.40;;
51467;SDS011;37545;45.302;-122.946;2023-04-15T13:09:18;3.17;;;1.55;;
51467;SDS011;37545;45.302;-122.946;2023-04-15T13:11:48;2.92;;;1.33;;
51467;SDS011;37545;45.302;-122.946;2023-04-15T13:14:17;2.88;;;1.30;;
51467;SDS011;37545;45.302;-122.946;2023-04-15T13:16:46;2.63;;;1.10;;
51467;SDS011;37545;45.302;-122.946;2023-04-15T13:19:15;2.08;;;1.55;;
51467;SDS011;37545;45.302;-122.946;2023-04-15T13:21:43;2.25;;;1.35;;
51467;SDS011;37545;45.302;-122.946;2023-04-15T13:24:12;2.58;;;1.17;;
51467;SDS011;37545;45.302;-122.946;2023-04-15T13:26:41;6.10;;;1.50;;
51467;SDS011;37545;45.302;-122.946;2023-04-15T13:29:11;3.22;;;1.52;;
51467;SDS011;37545;45.302;-122.946;2023-04-15T13:31:40;2.15;;;1.50;;
51467;SDS011;37545;45.302;-122.946;2023-04-15T13:34:09;3.25;;;1.40;;
51467;SDS011;37545;45.302;-122.946;2023-04-15T13:36:38;3.55;;;1.35;;
51467;SDS011;37545;45.302;-122.946;2023-04-15T13:39:06;2.05;;;1.38;;
51467;SDS011;37545;45.302;-122.946;2023-04-15T13:41:35;3.95;;;1.48;;
51467;SDS011;37545;45.302;-122.946;2023-04-15T13:44:03;2.05;;;1.52;;
51467;SDS011;37545;45.302;-122.946;2023-04-15T13:46:34;1.88;;;0.93;;
51467;SDS011;37545;45.302;-122.946;2023-04-15T13:49:04;1.63;;;0.95;;
51467;SDS011;37545;45.302;-122.946;2023-04-15T13:51:32;2.88;;;1.15;;
51467;SDS011;37545;45.302;-122.946;2023-04-15T13:54:02;1.88;;;1.02;;
51467;SDS011;37545;45.302;-122.946;2023-04-15T13:56:31;1.92;;;0.77;;
51467;SDS011;37545;45.302;-122.946;2023-04-15T13:58:59;1.70;;;1.10;;
51467;SDS011;37545;45.302;-122.946;2023-04-15T14:01:28;2.00;;;0.90;;
51467;SDS011;37545;45.302;-122.946;2023-04-15T14:04:05;3.40;;;1.02;;
51467;SDS011;37545;45.302;-122.946;2023-04-15T14:06:34;2.55;;;1.33;;
51467;SDS011;37545;45.302;-122.946;2023-04-15T14:09:02;2.22;;;1.10;;
51467;SDS011;37545;45.302;-122.946;2023-04-15T14:11:31;1.50;;;1.00;;
51467;SDS011;37545;45.302;-122.946;2023-04-15T14:14:01;2.90;;;1.50;;
51467;SDS011;37545;45.302;-122.946;2023-04-15T14:16:31;1.52;;;1.05;;
51467;SDS011;37545;45.302;-122.946;2023-04-15T14:19:00;2.92;;;0.90;;
51467;SDS011;37545;45.302;-122.946;2023-04-15T14:21:30;2.40;;;1.27;;
51467;SDS011;37545;45.302;-122.946;2023-04-15T14:23:59;0.93;;;0.77;;
51467;SDS011;37545;45.302;-122.946;2023-04-15T14:26:27;2.13;;;1.30;;
51467;SDS011;37545;45.302;-122.946;2023-04-15T14:28:56;5.28;;;0.90;;
51467;SDS011;37545;45.302;-122.946;2023-04-15T14:31:25;2.53;;;1.17;;
51467;SDS011;37545;45.302;-122.946;2023-04-15T14:33:53;1.30;;;0.73;;
51467;SDS011;37545;45.302;-122.946;2023-04-15T14:36:22;1.20;;;0.90;;